sensor_id;sensor_type;location;lat;lon;timestamp;P1;durP1;ratioP1;P2;durP2;ratioP2
813;SDS011;389;48.710;9.392;2023-04-15T00:02:14;10.67;;;6.00;;
813;SDS011;389;48.710;9.392;2023-04-15T00:04:42;10.70;;;6.20;;
813;SDS011;389;48.710;9.392;2023-04-15T00:07:08;8.80;;;5.67;;
813;SDS011;389;48.710;9.392;2023-04-15T00:09:34;10.70;;;6.17;;
813;SDS011;389;48.710;9.392;2023-04-15T00:11:59;9.90;;;6.10;;
813;SDS011;389;48.710;9.392;2023-04-15T00:14:25;8.80;;;6.00;;
813;SDS011;389;48.710;9.392;2023-04-15T00:16:52;11.80;;;6.70;;
813;SDS011;389;48.710;9.392;2023-04-15T00:19:20;10.73;;;6.60;;
813;SDS011;389;48.710;9.392;2023-04-15T00:21:46;8.17;;;5.83;;
813;SDS011;389;48.710;9.392;2023-04-15T00:24:11;11.80;;;6.60;;
813;SDS011;389;48.710;9.392;2023-04-15T00:26:47;14.23;;;6.03;;
813;SDS011;389;48.710;9.392;2023-04-15T00:29:13;9.60;;;6.10;;
813;SDS011;389;48.710;9.392;2023-04-15T00:31:39;8.70;;;5.50;;
813;SDS011;389;48.710;9.392;2023-04-15T00:34:06;11.83;;;7.07;;
813;SDS011;389;48.710;9.392;2023-04-15T00:36:31;17.40;;;6.50;;
813;SDS011;389;48.710;9.392;2023-04-15T00:38:59;10.97;;;6.23;;
813;SDS011;389;48.710;9.392;2023-04-15T00:41:24;10.80;;;6.27;;
813;SDS011;389;48.710;9.392;2023-04-15T00:43:50;9.57;;;6.03;;
813;SDS011;389;48.710;9.392;2023-04-15T00:46:16;12.80;;;6.20;;
813;SDS011;389;48.710;9.392;2023-04-15T00:48:45;11.27;;;6.13;;
813;SDS011;389;48.710;9.392;2023-04-15T00:51:11;11.73;;;6.30;;
813;SDS011;389;48.710;9.392;2023-04-15T00:53:37;11.23;;;6.10;;
813;SDS011;389;48.710;9.392;2023-04-15T00:56:03;14.03;;;8.00;;
813;SDS011;389;48.710;9.392;2023-04-15T00:58:30;22.83;;;9.80;;
813;SDS011;389;48.710;9.392;2023-04-15T01:00:55;24.73;;;9.90;;
813;SDS011;389;48.710;9.392;2023-04-15T01:03:22;27.90;;;11.37;;
813;SDS011;389;48.710;9.392;2023-04-15T01:05:48;14.80;;;7.40;;
813;SDS011;389;48.710;9.392;2023-04-15T01:08:17;13.07;;;6.90;;
813;SDS011;389;48.710;9.392;2023-04-15T01:10:42;6.30;;;5.57;;
813;SDS011;389;48.710;9.392;2023-04-15T01:13:08;9.53;;;5.37;;
813;SDS011;389;48.710;9.392;2023-04-15T01:15:34;11.97;;;5.57;;
813;SDS011;389;48.710;9.392;2023-04-15T01:18:00;7.43;;;5.50;;
813;SDS011;389;48.710;9.392;2023-04-15T01:20:27;8.53;;;4.90;;
813;SDS011;389;48.710;9.392;2023-04-15T01:22:53;8.00;;;5.40;;
813;SDS011;389;48.710;9.392;2023-04-15T01:25:27;8.63;;;5.60;;
813;SDS011;389;48.710;9.392;2023-04-15T01:27:57;10.50;;;6.50;;
813;SDS011;389;48.710;9.392;2023-04-15T01:30:23;11.80;;;7.43;;
813;SDS011;389;48.710;9.392;2023-04-15T01:32:49;7.67;;;5.30;;
813;SDS011;389;48.710;9.392;2023-04-15T01:35:15;12.10;;;6.20;;
813;SDS011;389;48.710;9.392;2023-04-15T01:37:41;11.10;;;6.83;;
813;SDS011;389;48.710;9.392;2023-04-15T01:40:07;8.00;;;6.00;;
813;SDS011;389;48.710;9.392;2023-04-15T01:42:35;12.43;;;5.80;;
813;SDS011;389;48.710;9.392;2023-04-15T01:45:01;8.53;;;6.10;;
813;SDS011;389;48.710;9.392;2023-04-15T01:47:27;9.50;;;7.47;;
813;SDS011;389;48.710;9.392;2023-04-15T01:52:28;8.97;;;7.00;;
813;SDS011;389;48.710;9.392;2023-04-15T01:54:53;9.97;;;6.90;;
813;SDS011;389;48.710;9.392;2023-04-15T01:57:19;8.90;;;6.50;;
813;SDS011;389;48.710;9.392;2023-04-15T01:59:44;11.23;;;6.70;;
813;SDS011;389;48.710;9.392;2023-04-15T02:02:10;14.20;;;7.30;;
813;SDS011;389;48.710;9.392;2023-04-15T02:04:37;9.70;;;6.97;;
813;SDS011;389;48.710;9.392;2023-04-15T02:07:03;9.77;;;6.17;;
813;SDS011;389;48.710;9.392;2023-04-15T02:09:28;7.13;;;5.80;;
813;SDS011;389;48.710;9.392;2023-04-15T02:11:54;7.00;;;5.67;;
813;SDS011;389;48.710;9.392;2023-04-15T02:14:20;11.70;;;6.90;;
813;SDS011;389;48.710;9.392;2023-04-15T02:16:46;13.33;;;5.57;;
813;SDS011;389;48.710;9.392;2023-04-15T02:19:11;13.50;;;7.57;;
813;SDS011;389;48.710;9.392;2023-04-15T02:21:37;10.80;;;6.93;;
813;SDS011;389;48.710;9.392;2023-04-15T02:24:03;10.17;;;6.57;;
813;SDS011;389;48.710;9.392;2023-04-15T02:26:29;13.63;;;7.50;;
813;SDS011;389;48.710;9.392;2023-04-15T02:28:57;9.40;;;6.80;;
813;SDS011;389;48.710;9.392;2023-04-15T02:31:23;10.00;;;6.73;;
813;SDS011;389;48.710;9.392;2023-04-15T02:33:49;9.17;;;6.07;;
813;SDS011;389;48.710;9.392;2023-04-15T02:36:15;11.47;;;6.47;;
813;SDS011;389;48.710;9.392;2023-04-15T02:38:40;9.67;;;6.23;;
813;SDS011;389;48.710;9.392;2023-04-15T02:41:08;8.93;;;5.70;;
813;SDS011;389;48.710;9.392;2023-04-15T02:43:36;12.53;;;6.00;;
813;SDS011;389;48.710;9.392;2023-04-15T02:46:03;11.30;;;5.80;;
813;SDS011;389;48.710;9.392;2023-04-15T02:48:29;10.27;;;7.00;;
813;SDS011;389;48.710;9.392;2023-04-15T02:51:14;38.03;;;15.00;;
813;SDS011;389;48.710;9.392;2023-04-15T02:53:42;17.57;;;8.30;;
813;SDS011;389;48.710;9.392;2023-04-15T02:56:08;9.73;;;6.50;;
813;SDS011;389;48.710;9.392;2023-04-15T02:58:34;8.67;;;5.80;;
813;SDS011;389;48.710;9.392;2023-04-15T03:01:00;10.87;;;5.63;;
813;SDS011;389;48.710;9.392;2023-04-15T03:03:26;12.13;;;6.70;;
813;SDS011;389;48.710;9.392;2023-04-15T03:05:54;16.30;;;7.80;;
813;SDS011;389;48.710;9.392;2023-04-15T03:08:20;14.73;;;7.80;;
813;SDS011;389;48.710;9.392;2023-04-15T03:10:46;36.93;;;14.33;;
813;SDS011;389;48.710;9.392;2023-04-15T03:13:12;30.10;;;12.10;;
813;SDS011;389;48.710;9.392;2023-04-15T03:15:37;28.53;;;14.03;;
813;SDS011;389;48.710;9.392;2023-04-15T03:18:03;20.73;;;9.97;;
813;SDS011;389;48.710;9.392;2023-04-15T03:20:28;14.83;;;7.90;;
813;SDS011;389;48.710;9.392;2023-04-15T03:22:54;12.13;;;6.03;;
813;SDS011;389;48.710;9.392;2023-04-15T03:25:20;16.03;;;6.23;;
813;SDS011;389;48.710;9.392;2023-04-15T03:27:45;12.03;;;7.03;;
813;SDS011;389;48.710;9.392;2023-04-15T03:30:11;16.87;;;7.03;;
813;SDS011;389;48.710;9.392;2023-04-15T03:32:37;10.37;;;6.40;;
813;SDS011;389;48.710;9.392;2023-04-15T03:35:03;10.53;;;6.00;;
813;SDS011;389;48.710;9.392;2023-04-15T03:37:30;15.70;;;8.10;;
813;SDS011;389;48.710;9.392;2023-04-15T03:39:55;19.20;;;9.90;;
813;SDS011;389;48.710;9.392;2023-04-15T03:42:21;19.23;;;8.90;;
813;SDS011;389;48.710;9.392;2023-04-15T03:44:47;11.27;;;7.10;;
813;SDS011;389;48.710;9.392;2023-04-15T03:47:12;15.07;;;6.70;;
813;SDS011;389;48.710;9.392;2023-04-15T03:49:38;11.77;;;8.33;;
813;SDS011;389;48.710;9.392;2023-04-15T03:52:03;12.17;;;7.47;;
813;SDS011;389;48.710;9.392;2023-04-15T03:54:29;13.47;;;8.17;;
813;SDS011;389;48.710;9.392;2023-04-15T03:56:55;11.40;;;7.13;;
813;SDS011;389;48.710;9.392;2023-04-15T03:59:21;9.20;;;5.97;;
813;SDS011;389;48.710;9.392;2023-04-15T04:01:47;11.10;;;6.97;;
813;SDS011;389;48.710;9.392;2023-04-15T04:04:12;11.47;;;7.50;;
813;SDS011;389;48.710;9.392;2023-04-15T04:06:38;10.57;;;6.50;;
813;SDS011;389;48.710;9.392;2023-04-15T04:09:03;26.97;;;11.67;;
813;SDS011;389;48.710;9.392;2023-04-15T04:11:29;26.77;;;11.37;;
813;SDS011;389;48.710;9.392;2023-04-15T04:13:55;30.67;;;12.43;;
813;SDS011;389;48.710;9.392;2023-04-15T04:16:21;25.37;;;11.10;;
813;SDS011;389;48.710;9.392;2023-04-15T04:18:46;16.57;;;8.80;;
813;SDS011;389;48.710;9.392;2023-04-15T04:21:12;11.60;;;7.73;;
813;SDS011;389;48.710;9.392;2023-04-15T04:23:49;13.63;;;7.53;;
813;SDS011;389;48.710;9.392;2023-04-15T04:26:15;10.83;;;6.83;;
813;SDS011;389;48.710;9.392;2023-04-15T04:28:40;10.20;;;6.23;;
813;SDS011;389;48.710;9.392;2023-04-15T04:31:06;12.13;;;7.10;;
813;SDS011;389;48.710;9.392;2023-04-15T04:33:32;13.50;;;7.87;;
813;SDS011;389;48.710;9.392;2023-04-15T04:35:57;11.10;;;7.07;;
813;SDS011;389;48.710;9.392;2023-04-15T04:38:23;11.43;;;6.73;;
813;SDS011;389;48.710;9.392;2023-04-15T04:40:48;12.50;;;6.83;;
813;SDS011;389;48.710;9.392;2023-04-15T04:43:14;11.47;;;6.60;;
813;SDS011;389;48.710;9.392;2023-04-15T04:45:40;7.27;;;5.50;;
813;SDS011;389;48.710;9.392;2023-04-15T04:48:06;12.83;;;7.03;;
813;SDS011;389;48.710;9.392;2023-04-15T04:50:32;11.63;;;6.40;;
813;SDS011;389;48.710;9.392;2023-04-15T04:52:59;8.40;;;5.40;;
813;SDS011;389;48.710;9.392;2023-04-15T04:55:25;8.17;;;5.03;;
813;SDS011;389;48.710;9.392;2023-04-15T04:57:51;10.67;;;6.13;;
813;SDS011;389;48.710;9.392;2023-04-15T05:00:18;8.13;;;5.67;;
813;SDS011;389;48.710;9.392;2023-04-15T05:02:44;8.17;;;5.50;;
813;SDS011;389;48.710;9.392;2023-04-15T05:05:10;8.30;;;5.73;;
813;SDS011;389;48.710;9.392;2023-04-15T05:07:36;8.90;;;5.90;;
813;SDS011;389;48.710;9.392;2023-04-15T05:10:02;10.43;;;5.60;;
813;SDS011;389;48.710;9.392;2023-04-15T05:12:28;9.50;;;5.20;;
813;SDS011;389;48.710;9.392;2023-04-15T05:14:53;12.43;;;6.80;;
813;SDS011;389;48.710;9.392;2023-04-15T05:17:19;11.90;;;6.17;;
813;SDS011;389;48.710;9.392;2023-04-15T05:19:45;11.20;;;6.47;;
813;SDS011;389;48.710;9.392;2023-04-15T05:22:10;8.37;;;5.30;;
813;SDS011;389;48.710;9.392;2023-04-15T05:24:36;10.20;;;6.30;;
813;SDS011;389;48.710;9.392;2023-04-15T05:27:01;9.20;;;6.37;;
813;SDS011;389;48.710;9.392;2023-04-15T05:29:27;13.07;;;6.00;;
813;SDS011;389;48.710;9.392;2023-04-15T05:31:53;14.63;;;6.40;;
813;SDS011;389;48.710;9.392;2023-04-15T05:34:18;7.90;;;5.40;;
813;SDS011;389;48.710;9.392;2023-04-15T05:36:44;12.90;;;6.30;;
813;SDS011;389;48.710;9.392;2023-04-15T05:39:09;10.73;;;6.70;;
813;SDS011;389;48.710;9.392;2023-04-15T05:41:35;12.03;;;6.50;;
813;SDS011;389;48.710;9.392;2023-04-15T05:44:01;12.20;;;6.60;;
813;SDS011;389;48.710;9.392;2023-04-15T05:46:27;17.90;;;11.20;;
813;SDS011;389;48.710;9.392;2023-04-15T05:48:52;13.47;;;8.30;;
813;SDS011;389;48.710;9.392;2023-04-15T05:51:18;9.83;;;6.03;;
813;SDS011;389;48.710;9.392;2023-04-15T05:53:43;8.87;;;6.40;;
813;SDS011;389;48.710;9.392;2023-04-15T05:56:09;7.80;;;5.57;;
813;SDS011;389;48.710;9.392;2023-04-15T05:58:35;9.40;;;5.43;;
813;SDS011;389;48.710;9.392;2023-04-15T06:01:01;11.30;;;6.50;;
813;SDS011;389;48.710;9.392;2023-04-15T06:03:32;8.43;;;6.17;;
813;SDS011;389;48.710;9.392;2023-04-15T06:05:58;8.77;;;6.00;;
813;SDS011;389;48.710;9.392;2023-04-15T06:08:24;9.80;;;5.80;;
813;SDS011;389;48.710;9.392;2023-04-15T06:10:50;7.73;;;5.67;;
813;SDS011;389;48.710;9.392;2023-04-15T06:13:16;9.40;;;6.13;;
813;SDS011;389;48.710;9.392;2023-04-15T06:15:41;7.83;;;5.77;;
813;SDS011;389;48.710;9.392;2023-04-15T06:18:07;7.93;;;5.90;;
813;SDS011;389;48.710;9.392;2023-04-15T06:20:32;10.03;;;6.60;;
813;SDS011;389;48.710;9.392;2023-04-15T06:22:58;8.90;;;6.00;;
813;SDS011;389;48.710;9.392;2023-04-15T06:25:23;8.37;;;6.97;;
813;SDS011;389;48.710;9.392;2023-04-15T06:27:49;14.40;;;11.83;;
813;SDS011;389;48.710;9.392;2023-04-15T06:30:15;9.80;;;4.93;;
813;SDS011;389;48.710;9.392;2023-04-15T06:32:40;8.80;;;5.33;;
813;SDS011;389;48.710;9.392;2023-04-15T06:35:06;16.90;;;10.20;;
813;SDS011;389;48.710;9.392;2023-04-15T06:37:32;14.27;;;7.80;;
813;SDS011;389;48.710;9.392;2023-04-15T06:39:58;9.70;;;6.73;;
813;SDS011;389;48.710;9.392;2023-04-15T06:42:23;10.67;;;5.80;;
813;SDS011;389;48.710;9.392;2023-04-15T06:44:49;7.50;;;5.40;;
813;SDS011;389;48.710;9.392;2023-04-15T06:47:15;7.93;;;5.30;;
813;SDS011;389;48.710;9.392;2023-04-15T06:49:40;6.23;;;4.80;;
813;SDS011;389;48.710;9.392;2023-04-15T06:52:07;6.43;;;5.30;;
813;SDS011;389;48.710;9.392;2023-04-15T06:54:34;13.60;;;5.93;;
813;SDS011;389;48.710;9.392;2023-04-15T06:56:59;10.13;;;5.53;;
813;SDS011;389;48.710;9.392;2023-04-15T06:59:25;6.60;;;4.60;;
813;SDS011;389;48.710;9.392;2023-04-15T07:01:51;7.00;;;4.87;;
813;SDS011;389;48.710;9.392;2023-04-15T07:04:16;8.10;;;5.13;;
813;SDS011;389;48.710;9.392;2023-04-15T07:06:42;6.17;;;5.00;;
813;SDS011;389;48.710;9.392;2023-04-15T07:09:08;9.83;;;5.43;;
813;SDS011;389;48.710;9.392;2023-04-15T07:11:34;10.17;;;5.60;;
813;SDS011;389;48.710;9.392;2023-04-15T07:14:00;8.10;;;5.43;;
813;SDS011;389;48.710;9.392;2023-04-15T07:16:28;9.20;;;5.60;;
813;SDS011;389;48.710;9.392;2023-04-15T07:18:53;9.27;;;5.33;;
813;SDS011;389;48.710;9.392;2023-04-15T07:21:19;7.13;;;4.57;;
813;SDS011;389;48.710;9.392;2023-04-15T07:23:45;8.40;;;5.40;;
813;SDS011;389;48.710;9.392;2023-04-15T07:26:11;9.70;;;5.50;;
813;SDS011;389;48.710;9.392;2023-04-15T07:28:36;6.50;;;5.30;;
813;SDS011;389;48.710;9.392;2023-04-15T07:31:02;10.70;;;6.00;;
813;SDS011;389;48.710;9.392;2023-04-15T07:33:28;9.43;;;5.63;;
813;SDS011;389;48.710;9.392;2023-04-15T07:35:53;8.17;;;5.43;;
813;SDS011;389;48.710;9.392;2023-04-15T07:38:19;5.63;;;4.63;;
813;SDS011;389;48.710;9.392;2023-04-15T07:40:46;8.50;;;5.27;;
813;SDS011;389;48.710;9.392;2023-04-15T07:43:12;6.30;;;5.27;;
813;SDS011;389;48.710;9.392;2023-04-15T07:45:38;7.07;;;5.90;;
813;SDS011;389;48.710;9.392;2023-04-15T07:48:03;10.77;;;5.83;;
813;SDS011;389;48.710;9.392;2023-04-15T07:50:30;8.20;;;4.87;;
813;SDS011;389;48.710;9.392;2023-04-15T07:52:56;9.97;;;5.60;;
813;SDS011;389;48.710;9.392;2023-04-15T07:55:26;6.67;;;5.17;;
813;SDS011;389;48.710;9.392;2023-04-15T07:57:51;6.07;;;5.10;;
813;SDS011;389;48.710;9.392;2023-04-15T08:02:45;9.67;;;5.07;;
813;SDS011;389;48.710;9.392;2023-04-15T08:05:12;12.60;;;5.03;;
813;SDS011;389;48.710;9.392;2023-04-15T08:07:38;6.03;;;4.60;;
813;SDS011;389;48.710;9.392;2023-04-15T08:10:18;8.43;;;5.30;;
813;SDS011;389;48.710;9.392;2023-04-15T08:15:19;7.10;;;4.87;;
813;SDS011;389;48.710;9.392;2023-04-15T08:20:30;5.63;;;4.67;;
813;SDS011;389;48.710;9.392;2023-04-15T08:22:57;7.97;;;4.83;;
813;SDS011;389;48.710;9.392;2023-04-15T08:25:23;7.03;;;5.40;;
813;SDS011;389;48.710;9.392;2023-04-15T08:27:54;5.33;;;4.80;;
813;SDS011;389;48.710;9.392;2023-04-15T08:30:21;8.10;;;4.97;;
813;SDS011;389;48.710;9.392;2023-04-15T08:32:50;7.50;;;5.30;;
813;SDS011;389;48.710;9.392;2023-04-15T08:35:15;9.67;;;5.30;;
813;SDS011;389;48.710;9.392;2023-04-15T08:37:41;6.40;;;4.63;;
813;SDS011;389;48.710;9.392;2023-04-15T08:40:08;5.80;;;4.73;;
813;SDS011;389;48.710;9.392;2023-04-15T08:42:40;6.93;;;4.80;;
813;SDS011;389;48.710;9.392;2023-04-15T08:45:12;7.57;;;5.17;;
813;SDS011;389;48.710;9.392;2023-04-15T08:47:37;7.07;;;4.40;;
813;SDS011;389;48.710;9.392;2023-04-15T08:50:05;8.60;;;4.70;;
813;SDS011;389;48.710;9.392;2023-04-15T08:52:33;7.03;;;4.40;;
813;SDS011;389;48.710;9.392;2023-04-15T08:54:59;7.03;;;4.07;;
813;SDS011;389;48.710;9.392;2023-04-15T08:57:27;5.20;;;3.83;;
813;SDS011;389;48.710;9.392;2023-04-15T08:59:56;5.37;;;4.20;;
813;SDS011;389;48.710;9.392;2023-04-15T09:02:22;6.57;;;4.60;;
813;SDS011;389;48.710;9.392;2023-04-15T09:04:52;6.73;;;4.40;;
813;SDS011;389;48.710;9.392;2023-04-15T09:07:18;6.50;;;5.00;;
813;SDS011;389;48.710;9.392;2023-04-15T09:09:43;10.13;;;5.50;;
813;SDS011;389;48.710;9.392;2023-04-15T09:12:13;8.70;;;5.70;;
813;SDS011;389;48.710;9.392;2023-04-15T09:14:39;8.17;;;4.30;;
813;SDS011;389;48.710;9.392;2023-04-15T09:17:04;8.80;;;4.97;;
813;SDS011;389;48.710;9.392;2023-04-15T09:19:34;6.33;;;4.73;;
813;SDS011;389;48.710;9.392;2023-04-15T09:21:59;6.57;;;5.20;;
813;SDS011;389;48.710;9.392;2023-04-15T09:24:32;6.77;;;4.97;;
813;SDS011;389;48.710;9.392;2023-04-15T09:27:02;6.00;;;5.27;;
813;SDS011;389;48.710;9.392;2023-04-15T09:29:28;7.37;;;5.30;;
813;SDS011;389;48.710;9.392;2023-04-15T09:31:55;6.53;;;5.03;;
813;SDS011;389;48.710;9.392;2023-04-15T09:34:20;9.80;;;4.97;;
813;SDS011;389;48.710;9.392;2023-04-15T09:37:00;8.57;;;4.53;;
813;SDS011;389;48.710;9.392;2023-04-15T09:39:26;6.57;;;3.97;;
813;SDS011;389;48.710;9.392;2023-04-15T09:42:02;4.50;;;3.30;;
813;SDS011;389;48.710;9.392;2023-04-15T09:44:32;4.53;;;3.10;;
813;SDS011;389;48.710;9.392;2023-04-15T09:46:58;5.47;;;3.50;;
813;SDS011;389;48.710;9.392;2023-04-15T09:49:23;6.30;;;3.57;;
813;SDS011;389;48.710;9.392;2023-04-15T09:51:49;4.20;;;3.40;;
813;SDS011;389;48.710;9.392;2023-04-15T09:54:18;4.20;;;2.83;;
813;SDS011;389;48.710;9.392;2023-04-15T09:56:45;4.00;;;2.43;;
813;SDS011;389;48.710;9.392;2023-04-15T09:59:10;2.80;;;2.50;;
813;SDS011;389;48.710;9.392;2023-04-15T10:01:36;7.33;;;2.77;;
813;SDS011;389;48.710;9.392;2023-04-15T10:04:03;3.57;;;2.63;;
813;SDS011;389;48.710;9.392;2023-04-15T10:06:31;3.83;;;2.87;;
813;SDS011;389;48.710;9.392;2023-04-15T10:08:57;2.83;;;2.33;;
813;SDS011;389;48.710;9.392;2023-04-15T10:11:23;3.60;;;2.97;;
813;SDS011;389;48.710;9.392;2023-04-15T10:13:52;4.33;;;2.97;;
813;SDS011;389;48.710;9.392;2023-04-15T10:16:28;3.73;;;2.60;;
813;SDS011;389;48.710;9.392;2023-04-15T10:18:56;2.70;;;2.10;;
813;SDS011;389;48.710;9.392;2023-04-15T10:21:26;4.17;;;2.07;;
813;SDS011;389;48.710;9.392;2023-04-15T10:23:52;2.07;;;1.93;;
813;SDS011;389;48.710;9.392;2023-04-15T10:26:18;3.90;;;3.00;;
813;SDS011;389;48.710;9.392;2023-04-15T10:28:44;2.63;;;2.40;;
813;SDS011;389;48.710;9.392;2023-04-15T10:31:14;3.43;;;2.40;;
813;SDS011;389;48.710;9.392;2023-04-15T10:33:41;3.77;;;2.40;;
813;SDS011;389;48.710;9.392;2023-04-15T10:36:08;3.13;;;2.40;;
813;SDS011;389;48.710;9.392;2023-04-15T10:38:42;3.93;;;2.80;;
813;SDS011;389;48.710;9.392;2023-04-15T10:41:19;3.93;;;2.70;;
813;SDS011;389;48.710;9.392;2023-04-15T10:43:47;6.23;;;2.87;;
813;SDS011;389;48.710;9.392;2023-04-15T10:46:18;3.60;;;3.30;;
813;SDS011;389;48.710;9.392;2023-04-15T10:49:07;3.27;;;2.97;;
813;SDS011;389;48.710;9.392;2023-04-15T10:52:16;3.40;;;3.10;;
813;SDS011;389;48.710;9.392;2023-04-15T10:55:19;8.03;;;4.03;;
813;SDS011;389;48.710;9.392;2023-04-15T10:57:57;6.87;;;3.87;;
813;SDS011;389;48.710;9.392;2023-04-15T11:00:30;6.90;;;3.37;;
813;SDS011;389;48.710;9.392;2023-04-15T11:03:20;4.73;;;3.23;;
813;SDS011;389;48.710;9.392;2023-04-15T11:05:59;5.43;;;3.80;;
813;SDS011;389;48.710;9.392;2023-04-15T11:11:23;4.33;;;3.70;;
813;SDS011;389;48.710;9.392;2023-04-15T11:14:13;4.70;;;3.50;;
813;SDS011;389;48.710;9.392;2023-04-15T11:16:43;4.93;;;4.00;;
813;SDS011;389;48.710;9.392;2023-04-15T11:19:09;14.20;;;4.27;;
813;SDS011;389;48.710;9.392;2023-04-15T11:21:34;6.47;;;4.20;;
813;SDS011;389;48.710;9.392;2023-04-15T11:24:00;4.90;;;4.10;;
813;SDS011;389;48.710;9.392;2023-04-15T11:26:26;5.57;;;4.43;;
813;SDS011;389;48.710;9.392;2023-04-15T11:28:51;6.97;;;4.43;;
813;SDS011;389;48.710;9.392;2023-04-15T11:31:18;4.20;;;3.70;;
813;SDS011;389;48.710;9.392;2023-04-15T11:33:53;4.83;;;4.00;;
813;SDS011;389;48.710;9.392;2023-04-15T11:36:20;5.33;;;4.80;;
813;SDS011;389;48.710;9.392;2023-04-15T11:38:48;4.30;;;3.57;;
813;SDS011;389;48.710;9.392;2023-04-15T11:41:13;5.27;;;3.43;;
813;SDS011;389;48.710;9.392;2023-04-15T11:43:39;5.40;;;4.17;;
813;SDS011;389;48.710;9.392;2023-04-15T11:46:05;3.70;;;3.20;;
813;SDS011;389;48.710;9.392;2023-04-15T11:48:33;6.90;;;4.13;;
813;SDS011;389;48.710;9.392;2023-04-15T11:51:00;5.33;;;3.67;;
813;SDS011;389;48.710;9.392;2023-04-15T11:53:51;4.37;;;3.90;;
813;SDS011;389;48.710;9.392;2023-04-15T11:56:17;3.97;;;3.67;;
813;SDS011;389;48.710;9.392;2023-04-15T11:58:54;3.97;;;3.50;;
813;SDS011;389;48.710;9.392;2023-04-15T12:01:30;5.00;;;3.90;;
813;SDS011;389;48.710;9.392;2023-04-15T12:04:01;4.20;;;3.80;;
813;SDS011;389;48.710;9.392;2023-04-15T12:06:34;5.27;;;4.27;;
813;SDS011;389;48.710;9.392;2023-04-15T12:11:35;5.00;;;3.30;;
813;SDS011;389;48.710;9.392;2023-04-15T12:17:18;4.20;;;3.80;;
813;SDS011;389;48.710;9.392;2023-04-15T12:19:26;4.80;;;3.50;;
813;SDS011;389;48.710;9.392;2023-04-15T12:24:24;5.10;;;3.97;;
813;SDS011;389;48.710;9.392;2023-04-15T12:26:53;5.43;;;3.70;;
813;SDS011;389;48.710;9.392;2023-04-15T12:29:24;5.10;;;4.60;;
813;SDS011;389;48.710;9.392;2023-04-15T12:32:10;5.37;;;4.20;;
813;SDS011;389;48.710;9.392;2023-04-15T12:34:38;5.50;;;4.30;;
813;SDS011;389;48.710;9.392;2023-04-15T12:37:06;7.23;;;4.90;;
813;SDS011;389;48.710;9.392;2023-04-15T12:39:34;5.13;;;3.70;;
813;SDS011;389;48.710;9.392;2023-04-15T12:42:01;7.93;;;3.93;;
813;SDS011;389;48.710;9.392;2023-04-15T12:44:28;5.93;;;3.67;;
813;SDS011;389;48.710;9.392;2023-04-15T12:46:54;5.10;;;3.23;;
813;SDS011;389;48.710;9.392;2023-04-15T12:49:20;4.30;;;2.83;;
813;SDS011;389;48.710;9.392;2023-04-15T12:51:51;3.83;;;3.27;;
813;SDS011;389;48.710;9.392;2023-04-15T12:54:21;3.90;;;3.60;;
813;SDS011;389;48.710;9.392;2023-04-15T12:56:48;4.83;;;3.50;;
813;SDS011;389;48.710;9.392;2023-04-15T12:59:14;3.40;;;3.10;;
813;SDS011;389;48.710;9.392;2023-04-15T13:01:42;3.80;;;3.17;;
813;SDS011;389;48.710;9.392;2023-04-15T13:04:08;4.13;;;3.20;;
813;SDS011;389;48.710;9.392;2023-04-15T13:06:33;4.60;;;3.80;;
813;SDS011;389;48.710;9.392;2023-04-15T13:08:59;4.70;;;3.30;;
813;SDS011;389;48.710;9.392;2023-04-15T13:11:25;3.63;;;3.27;;
813;SDS011;389;48.710;9.392;2023-04-15T13:14:05;7.40;;;3.07;;
813;SDS011;389;48.710;9.392;2023-04-15T13:16:32;5.37;;;3.00;;
813;SDS011;389;48.710;9.392;2023-04-15T13:18:59;5.00;;;3.47;;
813;SDS011;389;48.710;9.392;2023-04-15T13:21:25;3.70;;;2.97;;
813;SDS011;389;48.710;9.392;2023-04-15T13:23:51;5.33;;;3.27;;
813;SDS011;389;48.710;9.392;2023-04-15T13:26:17;3.50;;;3.20;;
813;SDS011;389;48.710;9.392;2023-04-15T13:28:43;4.17;;;3.40;;
813;SDS011;389;48.710;9.392;2023-04-15T13:31:09;7.07;;;5.10;;
813;SDS011;389;48.710;9.392;2023-04-15T13:33:34;4.50;;;3.07;;
813;SDS011;389;48.710;9.392;2023-04-15T13:45:50;2.50;;;2.30;;
813;SDS011;389;48.710;9.392;2023-04-15T14:09:17;9.63;;;6.07;;
813;SDS011;389;48.710;9.392;2023-04-15T14:16:25;3.13;;;2.60;;
813;SDS011;389;48.710;9.392;2023-04-15T14:18:57;3.97;;;2.63;;
813;SDS011;389;48.710;9.392;2023-04-15T14:21:37;1.83;;;1.73;;
813;SDS011;389;48.710;9.392;2023-04-15T14:24:03;1.40;;;0.97;;
813;SDS011;389;48.710;9.392;2023-04-15T14:26:41;2.40;;;1.40;;
813;SDS011;389;48.710;9.392;2023-04-15T14:29:19;1.73;;;1.40;;
813;SDS011;389;48.710;9.392;2023-04-15T14:31:48;1.40;;;1.30;;
813;SDS011;389;48.710;9.392;2023-04-15T14:34:17;3.13;;;1.70;;
813;SDS011;389;48.710;9.392;2023-04-15T14:36:46;3.43;;;2.00;;
813;SDS011;389;48.710;9.392;2023-04-15T14:39:18;1.57;;;1.47;;
813;SDS011;389;48.710;9.392;2023-04-15T14:42:02;2.57;;;1.87;;
813;SDS011;389;48.710;9.392;2023-04-15T14:44:28;3.23;;;2.37;;
813;SDS011;389;48.710;9.392;2023-04-15T14:46:58;4.80;;;2.50;;
813;SDS011;389;48.710;9.392;2023-04-15T14:49:24;3.70;;;1.90;;
813;SDS011;389;48.710;9.392;2023-04-15T14:51:50;4.53;;;3.10;;
813;SDS011;389;48.710;9.392;2023-04-15T14:54:16;1.70;;;1.43;;
813;SDS011;389;48.710;9.392;2023-04-15T14:56:41;1.67;;;1.40;;
813;SDS011;389;48.710;9.392;2023-04-15T14:59:07;1.60;;;1.50;;
813;SDS011;389;48.710;9.392;2023-04-15T15:01:33;3.00;;;1.63;;
813;SDS011;389;48.710;9.392;2023-04-15T15:03:58;3.13;;;1.70;;
813;SDS011;389;48.710;9.392;2023-04-15T15:06:24;1.60;;;1.50;;
813;SDS011;389;48.710;9.392;2023-04-15T15:08:50;3.10;;;1.70;;
813;SDS011;389;48.710;9.392;2023-04-15T15:11:16;2.73;;;1.70;;
813;SDS011;389;48.710;9.392;2023-04-15T15:13:41;2.67;;;1.87;;
813;SDS011;389;48.710;9.392;2023-04-15T15:16:07;1.50;;;1.40;;
813;SDS011;389;48.710;9.392;2023-04-15T15:18:34;1.50;;;1.40;;
813;SDS011;389;48.710;9.392;2023-04-15T15:21:00;1.60;;;1.50;;
813;SDS011;389;48.710;9.392;2023-04-15T15:23:25;2.40;;;1.60;;
813;SDS011;389;48.710;9.392;2023-04-15T15:25:51;2.87;;;1.40;;
813;SDS011;389;48.710;9.392;2023-04-15T15:28:17;1.80;;;1.70;;
813;SDS011;389;48.710;9.392;2023-04-15T15:30:42;2.90;;;2.10;;
813;SDS011;389;48.710;9.392;2023-04-15T15:33:27;3.90;;;2.20;;
813;SDS011;389;48.710;9.392;2023-04-15T15:36:02;15.50;;;8.33;;
813;SDS011;389;48.710;9.392;2023-04-15T15:38:28;27.70;;;12.50;;
813;SDS011;389;48.710;9.392;2023-04-15T15:40:53;3.23;;;2.43;;
813;SDS011;389;48.710;9.392;2023-04-15T15:43:19;10.23;;;7.53;;
813;SDS011;389;48.710;9.392;2023-04-15T15:45:45;2.80;;;2.30;;
813;SDS011;389;48.710;9.392;2023-04-15T15:48:10;3.67;;;3.00;;
813;SDS011;389;48.710;9.392;2023-04-15T15:50:36;3.23;;;2.00;;
813;SDS011;389;48.710;9.392;2023-04-15T15:53:01;3.23;;;2.00;;
813;SDS011;389;48.710;9.392;2023-04-15T15:55:27;7.10;;;5.80;;
813;SDS011;389;48.710;9.392;2023-04-15T15:57:53;4.53;;;2.90;;
813;SDS011;389;48.710;9.392;2023-04-15T16:00:18;4.63;;;2.43;;
813;SDS011;389;48.710;9.392;2023-04-15T16:02:47;7.47;;;6.67;;
813;SDS011;389;48.710;9.392;2023-04-15T16:05:12;3.10;;;2.80;;
813;SDS011;389;48.710;9.392;2023-04-15T16:07:38;3.07;;;2.50;;
813;SDS011;389;48.710;9.392;2023-04-15T16:10:04;8.13;;;3.53;;
813;SDS011;389;48.710;9.392;2023-04-15T16:12:30;3.90;;;2.93;;
813;SDS011;389;48.710;9.392;2023-04-15T16:14:56;2.17;;;1.97;;
813;SDS011;389;48.710;9.392;2023-04-15T16:17:21;3.17;;;2.23;;
813;SDS011;389;48.710;9.392;2023-04-15T16:19:47;2.57;;;2.20;;
813;SDS011;389;48.710;9.392;2023-04-15T16:22:13;2.90;;;2.20;;
813;SDS011;389;48.710;9.392;2023-04-15T16:24:39;2.57;;;2.10;;
813;SDS011;389;48.710;9.392;2023-04-15T16:27:05;2.80;;;2.50;;
813;SDS011;389;48.710;9.392;2023-04-15T16:29:30;2.63;;;2.27;;
813;SDS011;389;48.710;9.392;2023-04-15T16:31:56;2.00;;;1.90;;
813;SDS011;389;48.710;9.392;2023-04-15T16:34:22;2.30;;;2.10;;
813;SDS011;389;48.710;9.392;2023-04-15T16:36:47;4.17;;;2.63;;
813;SDS011;389;48.710;9.392;2023-04-15T16:39:13;2.17;;;1.83;;